FQQL

Details ICAO FQQL (UEL)
Name QUELIMANE
Region Mozambique
Timezone Africa/Maputo (UTC+2.0)
Plans Departing 3
Arriving 4
Stats Elevation 36 ft / 11 m (AMSL)
Location -17.853200° 36.869600°
Runways 2
Magnetic Variation 10.444° W
Sunrise 2018-10-17 03:03:34 UTC / 2018-10-17 05:03:34 Local
Sunset 2018-10-17 15:34:33 UTC / 2018-10-17 17:34:33 Local
Advertisement - Login to hide

Runways

ID Width Length Bearing (true/mag) Surface Threshold Overrun Markings Lighting
09 98 ft / 30 m 3,027 ft / 923 m 84.31° / 94.76° GRAVEL 0 ft / 0 m 0 ft / 0 m VISUAL
18 148 ft / 45 m 5,931 ft / 1,808 m 174.30° / 184.74° ASPHALT 0 ft / 0 m 0 ft / 0 m APP EDGE THRESHOLD MALS
27 98 ft / 30 m 3,027 ft / 923 m 264.31° / 274.76° GRAVEL 0 ft / 0 m 0 ft / 0 m VISUAL
36 148 ft / 45 m 5,931 ft / 1,808 m 354.30° / 4.74° ASPHALT 0 ft / 0 m 0 ft / 0 m APP EDGE THRESHOLD MALS

Map

Weather


0- 5 10 15 20 25 30 35+ Temperature / °C

Clouds and Precipitation
Forecast for 2018-10-17 18:00 UTC. Updated 4 hours ago

Ground ~20,000 ft ~40,000 ft Winds

METAR

FQQL 171900Z 09014KT CAVOK 27/23 Q1010

TAF

Not found

Frequencies

Tower 118.30 MHz
Warning: Do not use this data for real-world aviation or navigation. No guarantee of current accuracy is given.